sensor_id;sensor_type;location;lat;lon;timestamp;pressure;altitude;pressure_sealevel;temperature;humidity
21821;BME280;11073;48.586;12.066;2023-04-08T00:00:49;96433.22;;;6.81;57.41
21821;BME280;11073;48.586;12.066;2023-04-08T00:03:39;96450.75;;;6.90;57.48
21821;BME280;11073;48.586;12.066;2023-04-08T00:06:28;96447.84;;;6.91;57.56
21821;BME280;11073;48.586;12.066;2023-04-08T00:09:18;96444.94;;;6.93;57.53
21821;BME280;11073;48.586;12.066;2023-04-08T00:12:08;96455.91;;;6.91;57.57
21821;BME280;11073;48.586;12.066;2023-04-08T00:14:57;96443.09;;;6.87;57.68
21821;BME280;11073;48.586;12.066;2023-04-08T00:17:46;96452.41;;;6.91;57.62
21821;BME280;11073;48.586;12.066;2023-04-08T00:20:35;96454.25;;;6.90;57.67
21821;BME280;11073;48.586;12.066;2023-04-08T00:23:25;96438.97;;;6.84;57.65
21821;BME280;11073;48.586;12.066;2023-04-08T00:26:14;96454.66;;;6.94;57.80
21821;BME280;11073;48.586;12.066;2023-04-08T00:29:05;96453.59;;;6.95;57.75
21821;BME280;11073;48.586;12.066;2023-04-08T00:31:54;96446.56;;;6.94;57.70
21821;BME280;11073;48.586;12.066;2023-04-08T00:34:43;96451.75;;;6.96;57.83
21821;BME280;11073;48.586;12.066;2023-04-08T00:37:32;96455.88;;;6.98;57.73
21821;BME280;11073;48.586;12.066;2023-04-08T00:40:21;96455.44;;;7.01;57.82
21821;BME280;11073;48.586;12.066;2023-04-08T00:43:11;96464.16;;;7.03;57.82
21821;BME280;11073;48.586;12.066;2023-04-08T00:46:02;96443.88;;;6.94;57.82
21821;BME280;11073;48.586;12.066;2023-04-08T00:48:51;96458.31;;;7.06;57.90
21821;BME280;11073;48.586;12.066;2023-04-08T00:51:40;96464.31;;;7.08;57.91
21821;BME280;11073;48.586;12.066;2023-04-08T00:54:30;96468.03;;;7.07;58.01
21821;BME280;11073;48.586;12.066;2023-04-08T00:57:19;96470.13;;;7.05;57.90
21821;BME280;11073;48.586;12.066;2023-04-08T01:00:09;96472.41;;;7.02;57.88
21821;BME280;11073;48.586;12.066;2023-04-08T01:03:06;96462.13;;;6.92;57.77
21821;BME280;11073;48.586;12.066;2023-04-08T01:06:05;96463.34;;;6.96;58.03
21821;BME280;11073;48.586;12.066;2023-04-08T01:08:59;96467.06;;;6.95;58.11
21821;BME280;11073;48.586;12.066;2023-04-08T01:11:49;96470.19;;;6.92;58.18
21821;BME280;11073;48.586;12.066;2023-04-08T01:14:42;96462.34;;;6.90;58.03
21821;BME280;11073;48.586;12.066;2023-04-08T01:17:36;96466.69;;;6.91;58.18
21821;BME280;11073;48.586;12.066;2023-04-08T01:20:28;96464.59;;;6.94;58.35
21821;BME280;11073;48.586;12.066;2023-04-08T01:23:40;96465.00;;;6.97;58.41
21821;BME280;11073;48.586;12.066;2023-04-08T01:26:32;96467.69;;;6.97;58.26
21821;BME280;11073;48.586;12.066;2023-04-08T01:29:22;96453.00;;;6.93;58.36
21821;BME280;11073;48.586;12.066;2023-04-08T01:32:12;96464.97;;;7.04;58.50
21821;BME280;11073;48.586;12.066;2023-04-08T01:35:04;96442.66;;;6.97;58.45
21821;BME280;11073;48.586;12.066;2023-04-08T01:37:54;96466.38;;;7.06;58.37
21821;BME280;11073;48.586;12.066;2023-04-08T01:40:44;96466.16;;;7.08;58.48
21821;BME280;11073;48.586;12.066;2023-04-08T01:43:37;96457.88;;;7.09;58.53
21821;BME280;11073;48.586;12.066;2023-04-08T01:46:28;96457.28;;;7.07;58.50
21821;BME280;11073;48.586;12.066;2023-04-08T01:49:18;96448.00;;;7.03;58.58
21821;BME280;11073;48.586;12.066;2023-04-08T01:52:09;96461.59;;;7.08;58.56
21821;BME280;11073;48.586;12.066;2023-04-08T01:54:59;96452.56;;;7.03;58.53
21821;BME280;11073;48.586;12.066;2023-04-08T01:57:50;96453.78;;;7.00;58.48
21821;BME280;11073;48.586;12.066;2023-04-08T02:00:41;96449.00;;;7.02;58.61
21821;BME280;11073;48.586;12.066;2023-04-08T02:03:34;96449.44;;;6.99;58.67
21821;BME280;11073;48.586;12.066;2023-04-08T02:06:25;96456.47;;;7.00;58.69
21821;BME280;11073;48.586;12.066;2023-04-08T02:09:15;96462.47;;;7.02;58.75
21821;BME280;11073;48.586;12.066;2023-04-08T02:12:05;96458.97;;;6.95;58.79
21821;BME280;11073;48.586;12.066;2023-04-08T02:14:54;96471.84;;;6.93;58.76
21821;BME280;11073;48.586;12.066;2023-04-08T02:17:48;96467.72;;;6.90;58.84
21821;BME280;11073;48.586;12.066;2023-04-08T02:20:43;96470.63;;;6.89;58.93
21821;BME280;11073;48.586;12.066;2023-04-08T02:23:37;96461.31;;;6.85;58.86
21821;BME280;11073;48.586;12.066;2023-04-08T02:26:27;96461.78;;;6.82;58.87
21821;BME280;11073;48.586;12.066;2023-04-08T02:29:17;96464.44;;;6.88;58.92
21821;BME280;11073;48.586;12.066;2023-04-08T02:32:07;96469.19;;;6.86;58.99
21821;BME280;11073;48.586;12.066;2023-04-08T02:35:00;96471.25;;;6.84;59.07
21821;BME280;11073;48.586;12.066;2023-04-08T02:37:50;96471.25;;;6.84;59.09
21821;BME280;11073;48.586;12.066;2023-04-08T02:40:39;96473.13;;;6.84;59.15
21821;BME280;11073;48.586;12.066;2023-04-08T02:43:28;96482.03;;;6.84;59.15
21821;BME280;11073;48.586;12.066;2023-04-08T02:46:19;96478.28;;;6.85;59.19
21821;BME280;11073;48.586;12.066;2023-04-08T02:49:08;96478.28;;;6.85;59.14
21821;BME280;11073;48.586;12.066;2023-04-08T02:51:59;96480.56;;;6.88;59.20
21821;BME280;11073;48.586;12.066;2023-04-08T02:54:47;96477.66;;;6.90;59.26
21821;BME280;11073;48.586;12.066;2023-04-08T02:57:38;96482.22;;;6.89;59.25
21821;BME280;11073;48.586;12.066;2023-04-08T03:00:27;96474.34;;;6.88;59.25
21821;BME280;11073;48.586;12.066;2023-04-08T03:03:16;96475.56;;;6.92;59.31
21821;BME280;11073;48.586;12.066;2023-04-08T03:06:06;96485.53;;;6.91;59.30
21821;BME280;11073;48.586;12.066;2023-04-08T03:08:56;96480.34;;;6.90;59.31
21821;BME280;11073;48.586;12.066;2023-04-08T03:11:45;96479.94;;;6.86;59.34
21821;BME280;11073;48.586;12.066;2023-04-08T03:14:39;96473.97;;;6.84;59.39
21821;BME280;11073;48.586;12.066;2023-04-08T03:17:28;96481.44;;;6.82;59.35
21821;BME280;11073;48.586;12.066;2023-04-08T03:20:20;96488.03;;;6.80;59.46
21821;BME280;11073;48.586;12.066;2023-04-08T03:23:09;96488.88;;;6.80;59.54
21821;BME280;11073;48.586;12.066;2023-04-08T03:25:59;96489.50;;;6.82;59.64
21821;BME280;11073;48.586;12.066;2023-04-08T03:28:51;96481.22;;;6.84;59.68
21821;BME280;11073;48.586;12.066;2023-04-08T03:31:40;96475.81;;;6.84;59.70
21821;BME280;11073;48.586;12.066;2023-04-08T03:34:29;96490.09;;;6.84;59.67
21821;BME280;11073;48.586;12.066;2023-04-08T03:37:18;96491.97;;;6.84;59.73
21821;BME280;11073;48.586;12.066;2023-04-08T03:40:08;96477.69;;;6.83;59.94
21821;BME280;11073;48.586;12.066;2023-04-08T03:42:59;96490.53;;;6.81;59.98
21821;BME280;11073;48.586;12.066;2023-04-08T03:45:48;96486.41;;;6.79;60.00
21821;BME280;11073;48.586;12.066;2023-04-08T03:48:37;96482.50;;;6.75;59.86
21821;BME280;11073;48.586;12.066;2023-04-08T03:51:26;96486.63;;;6.77;60.11
21821;BME280;11073;48.586;12.066;2023-04-08T03:54:15;96489.09;;;6.79;60.18
21821;BME280;11073;48.586;12.066;2023-04-08T03:57:04;96496.13;;;6.80;60.09
21821;BME280;11073;48.586;12.066;2023-04-08T03:59:54;96489.53;;;6.76;60.13
21821;BME280;11073;48.586;12.066;2023-04-08T04:02:43;96488.91;;;6.74;60.14
21821;BME280;11073;48.586;12.066;2023-04-08T04:05:33;96501.50;;;6.80;60.26
21821;BME280;11073;48.586;12.066;2023-04-08T04:08:21;96500.06;;;6.77;60.20
21821;BME280;11073;48.586;12.066;2023-04-08T04:11:10;96496.13;;;6.80;60.16
21821;BME280;11073;48.586;12.066;2023-04-08T04:13:59;96507.69;;;6.80;60.19
21821;BME280;11073;48.586;12.066;2023-04-08T04:16:49;96506.88;;;6.80;60.23
21821;BME280;11073;48.586;12.066;2023-04-08T04:19:39;96499.03;;;6.78;60.23
21821;BME280;11073;48.586;12.066;2023-04-08T04:22:28;96500.91;;;6.78;60.14
21821;BME280;11073;48.586;12.066;2023-04-08T04:25:17;96504.84;;;6.75;60.35
21821;BME280;11073;48.586;12.066;2023-04-08T04:28:05;96506.06;;;6.79;60.19
21821;BME280;11073;48.586;12.066;2023-04-08T04:30:56;96509.56;;;6.80;60.30
21821;BME280;11073;48.586;12.066;2023-04-08T04:33:46;96515.16;;;6.78;60.12
21821;BME280;11073;48.586;12.066;2023-04-08T04:36:35;96522.63;;;6.76;60.27
21821;BME280;11073;48.586;12.066;2023-04-08T04:39:25;96518.09;;;6.77;60.28
21821;BME280;11073;48.586;12.066;2023-04-08T04:42:14;96519.72;;;6.78;60.28
21821;BME280;11073;48.586;12.066;2023-04-08T04:45:03;96524.06;;;6.79;60.26
21821;BME280;11073;48.586;12.066;2023-04-08T04:47:52;96523.25;;;6.78;60.27
21821;BME280;11073;48.586;12.066;2023-04-08T04:50:43;96528.84;;;6.77;60.33
21821;BME280;11073;48.586;12.066;2023-04-08T04:53:32;96520.19;;;6.68;60.23
21821;BME280;11073;48.586;12.066;2023-04-08T04:56:21;96521.22;;;6.67;60.43
21821;BME280;11073;48.586;12.066;2023-04-08T04:59:10;96530.13;;;6.68;60.48
21821;BME280;11073;48.586;12.066;2023-04-08T05:01:59;96533.19;;;6.71;60.53
21821;BME280;11073;48.586;12.066;2023-04-08T05:04:48;96536.72;;;6.72;60.42
21821;BME280;11073;48.586;12.066;2023-04-08T05:07:41;96537.97;;;6.69;60.47
21821;BME280;11073;48.586;12.066;2023-04-08T05:10:30;96540.47;;;6.64;60.61
21821;BME280;11073;48.586;12.066;2023-04-08T05:13:21;96546.66;;;6.64;60.69
21821;BME280;11073;48.586;12.066;2023-04-08T05:16:10;96546.66;;;6.64;60.73
21821;BME280;11073;48.586;12.066;2023-04-08T05:18:59;96551.44;;;6.69;60.65
21821;BME280;11073;48.586;12.066;2023-04-08T05:21:48;96550.38;;;6.70;60.82
21821;BME280;11073;48.586;12.066;2023-04-08T05:24:38;96549.78;;;6.68;60.77
21821;BME280;11073;48.586;12.066;2023-04-08T05:27:27;96555.16;;;6.68;60.96
21821;BME280;11073;48.586;12.066;2023-04-08T05:30:17;96561.59;;;6.67;60.93
21821;BME280;11073;48.586;12.066;2023-04-08T05:33:06;96559.50;;;6.62;61.01
21821;BME280;11073;48.586;12.066;2023-04-08T05:35:55;96576.25;;;6.64;61.08
21821;BME280;11073;48.586;12.066;2023-04-08T05:38:44;96554.56;;;6.59;61.28
21821;BME280;11073;48.586;12.066;2023-04-08T05:41:34;96569.00;;;6.72;61.17
21821;BME280;11073;48.586;12.066;2023-04-08T05:44:23;96572.34;;;6.74;61.18
21821;BME280;11073;48.586;12.066;2023-04-08T05:47:12;96575.19;;;6.79;61.39
21821;BME280;11073;48.586;12.066;2023-04-08T05:50:02;96582.44;;;6.85;61.43
21821;BME280;11073;48.586;12.066;2023-04-08T05:52:51;96580.09;;;6.95;61.77
21821;BME280;11073;48.586;12.066;2023-04-08T05:55:40;96584.84;;;7.06;61.87
21821;BME280;11073;48.586;12.066;2023-04-08T05:58:30;96584.63;;;7.08;61.51
21821;BME280;11073;48.586;12.066;2023-04-08T06:01:19;96588.56;;;7.05;61.42
21821;BME280;11073;48.586;12.066;2023-04-08T06:04:08;96588.97;;;7.02;61.44
21821;BME280;11073;48.586;12.066;2023-04-08T06:06:57;96585.09;;;6.98;61.57
21821;BME280;11073;48.586;12.066;2023-04-08T06:09:49;96584.13;;;7.24;63.34
21821;BME280;11073;48.586;12.066;2023-04-08T06:12:37;96598.00;;;7.28;61.99
21821;BME280;11073;48.586;12.066;2023-04-08T06:15:28;96599.09;;;7.20;61.82
21821;BME280;11073;48.586;12.066;2023-04-08T06:18:17;96603.03;;;7.17;61.76
21821;BME280;11073;48.586;12.066;2023-04-08T06:21:05;96601.56;;;7.15;61.66
21821;BME280;11073;48.586;12.066;2023-04-08T06:23:55;96604.28;;;7.15;61.61
21821;BME280;11073;48.586;12.066;2023-04-08T06:26:44;96605.53;;;7.12;61.57
21821;BME280;11073;48.586;12.066;2023-04-08T06:29:34;96613.19;;;7.09;61.52
21821;BME280;11073;48.586;12.066;2023-04-08T06:32:25;96603.88;;;7.11;61.64
21821;BME280;11073;48.586;12.066;2023-04-08T06:35:15;96609.28;;;7.11;61.65
21821;BME280;11073;48.586;12.066;2023-04-08T06:38:04;96609.88;;;7.13;61.70
21821;BME280;11073;48.586;12.066;2023-04-08T06:40:53;96613.00;;;7.17;61.70
21821;BME280;11073;48.586;12.066;2023-04-08T06:43:44;96611.50;;;7.21;61.70
21821;BME280;11073;48.586;12.066;2023-04-08T06:46:33;96618.97;;;7.26;61.75
21821;BME280;11073;48.586;12.066;2023-04-08T06:49:23;96619.56;;;7.28;61.72
21821;BME280;11073;48.586;12.066;2023-04-08T06:52:13;96624.09;;;7.34;61.49
21821;BME280;11073;48.586;12.066;2023-04-08T06:55:04;96621.59;;;7.39;61.70
21821;BME280;11073;48.586;12.066;2023-04-08T06:57:53;96632.16;;;7.40;61.50
21821;BME280;11073;48.586;12.066;2023-04-08T07:00:42;96635.66;;;7.41;61.59
21821;BME280;11073;48.586;12.066;2023-04-08T07:03:31;96649.75;;;7.43;61.51
21821;BME280;11073;48.586;12.066;2023-04-08T07:06:22;96637.31;;;7.42;61.66
21821;BME280;11073;48.586;12.066;2023-04-08T07:09:11;96635.88;;;7.39;61.50
21821;BME280;11073;48.586;12.066;2023-04-08T07:12:00;96642.72;;;7.42;61.49
21821;BME280;11073;48.586;12.066;2023-04-08T07:14:50;96644.16;;;7.38;61.31
21821;BME280;11073;48.586;12.066;2023-04-08T07:17:39;96638.16;;;7.36;61.06
21821;BME280;11073;48.586;12.066;2023-04-08T07:20:29;96639.66;;;7.32;60.72
21821;BME280;11073;48.586;12.066;2023-04-08T07:23:20;96638.78;;;7.38;60.59
21821;BME280;11073;48.586;12.066;2023-04-08T07:26:09;96644.34;;;7.43;60.56
21821;BME280;11073;48.586;12.066;2023-04-08T07:28:58;96638.13;;;7.49;60.33
21821;BME280;11073;48.586;12.066;2023-04-08T07:31:47;96647.81;;;7.57;60.14
21821;BME280;11073;48.586;12.066;2023-04-08T07:34:36;96657.97;;;7.61;60.09
21821;BME280;11073;48.586;12.066;2023-04-08T07:37:25;96662.94;;;7.58;59.78
21821;BME280;11073;48.586;12.066;2023-04-08T07:40:16;96656.94;;;7.56;59.73
21821;BME280;11073;48.586;12.066;2023-04-08T07:43:06;96656.75;;;7.51;59.73
21821;BME280;11073;48.586;12.066;2023-04-08T07:45:59;96664.88;;;7.44;59.58
21821;BME280;11073;48.586;12.066;2023-04-08T07:48:49;96662.66;;;7.72;60.87
21821;BME280;11073;48.586;12.066;2023-04-08T07:51:39;96665.38;;;7.66;60.11
21821;BME280;11073;48.586;12.066;2023-04-08T07:54:29;96589.16;;;7.14;59.99
21821;BME280;11073;48.586;12.066;2023-04-08T07:57:22;96668.13;;;7.53;60.04
21821;BME280;11073;48.586;12.066;2023-04-08T08:00:12;96670.00;;;7.52;60.12
21821;BME280;11073;48.586;12.066;2023-04-08T08:03:08;96661.31;;;7.50;60.25
21821;BME280;11073;48.586;12.066;2023-04-08T08:05:56;96671.50;;;7.48;60.42
21821;BME280;11073;48.586;12.066;2023-04-08T08:08:46;96666.13;;;7.41;60.16
21821;BME280;11073;48.586;12.066;2023-04-08T08:11:35;96684.38;;;7.39;60.51
21821;BME280;11073;48.586;12.066;2023-04-08T08:14:25;96690.81;;;7.32;60.63
21821;BME280;11073;48.586;12.066;2023-04-08T08:17:14;96678.38;;;7.24;60.82
21821;BME280;11073;48.586;12.066;2023-04-08T08:20:04;96676.75;;;7.16;61.09
21821;BME280;11073;48.586;12.066;2023-04-08T08:22:53;96688.38;;;7.17;61.38
21821;BME280;11073;48.586;12.066;2023-04-08T08:25:45;96683.63;;;7.12;61.49
21821;BME280;11073;48.586;12.066;2023-04-08T08:28:34;96682.78;;;7.12;61.60
21821;BME280;11073;48.586;12.066;2023-04-08T08:31:24;96694.59;;;7.11;61.90
21821;BME280;11073;48.586;12.066;2023-04-08T08:34:13;96692.53;;;7.06;61.93
21821;BME280;11073;48.586;12.066;2023-04-08T08:37:02;96697.31;;;7.04;62.18
21821;BME280;11073;48.586;12.066;2023-04-08T08:39:51;96703.72;;;7.03;62.12
21821;BME280;11073;48.586;12.066;2023-04-08T08:42:40;96699.78;;;6.93;62.35
21821;BME280;11073;48.586;12.066;2023-04-08T08:45:29;96704.13;;;6.94;62.30
21821;BME280;11073;48.586;12.066;2023-04-08T08:48:19;96706.63;;;6.95;62.55
21821;BME280;11073;48.586;12.066;2023-04-08T08:51:08;96712.22;;;7.00;62.80
21821;BME280;11073;48.586;12.066;2023-04-08T08:54:01;96715.94;;;7.06;62.89
21821;BME280;11073;48.586;12.066;2023-04-08T08:56:50;96715.31;;;7.10;63.07
21821;BME280;11073;48.586;12.066;2023-04-08T08:59:39;96722.53;;;7.16;63.09
21821;BME280;11073;48.586;12.066;2023-04-08T09:02:30;96709.06;;;7.16;63.13
21821;BME280;11073;48.586;12.066;2023-04-08T09:05:22;96713.63;;;7.16;63.06
21821;BME280;11073;48.586;12.066;2023-04-08T09:08:22;96719.66;;;7.18;63.21
21821;BME280;11073;48.586;12.066;2023-04-08T09:11:12;96725.84;;;7.18;63.29
21821;BME280;11073;48.586;12.066;2023-04-08T09:14:02;96720.25;;;7.20;63.25
21821;BME280;11073;48.586;12.066;2023-04-08T09:16:53;96721.69;;;7.23;63.21
21821;BME280;11073;48.586;12.066;2023-04-08T09:20:04;96721.53;;;7.17;63.20
21821;BME280;11073;48.586;12.066;2023-04-08T09:23:01;96717.56;;;7.13;63.25
21821;BME280;11073;48.586;12.066;2023-04-08T09:25:49;96727.09;;;7.16;63.32
21821;BME280;11073;48.586;12.066;2023-04-08T09:28:40;96716.75;;;7.19;63.36
21821;BME280;11073;48.586;12.066;2023-04-08T09:31:30;96728.09;;;7.28;63.42
21821;BME280;11073;48.586;12.066;2023-04-08T09:34:20;96721.91;;;7.28;63.40
21821;BME280;11073;48.586;12.066;2023-04-08T09:37:09;96725.03;;;7.25;63.27
21821;BME280;11073;48.586;12.066;2023-04-08T09:39:59;96734.13;;;7.24;63.18
21821;BME280;11073;48.586;12.066;2023-04-08T09:42:49;96730.81;;;7.22;63.14
21821;BME280;11073;48.586;12.066;2023-04-08T09:45:41;96735.38;;;7.28;63.25
21821;BME280;11073;48.586;12.066;2023-04-08T09:48:36;96735.34;;;7.41;63.41
21821;BME280;11073;48.586;12.066;2023-04-08T09:51:31;96731.19;;;7.38;63.33
21821;BME280;11073;48.586;12.066;2023-04-08T09:54:21;96736.41;;;7.33;63.21
21821;BME280;11073;48.586;12.066;2023-04-08T09:57:21;96732.44;;;7.36;63.16
21821;BME280;11073;48.586;12.066;2023-04-08T10:00:15;96737.59;;;7.37;63.27
21821;BME280;11073;48.586;12.066;2023-04-08T10:03:09;96738.88;;;7.35;63.22
21821;BME280;11073;48.586;12.066;2023-04-08T10:06:00;96733.91;;;7.32;63.31
21821;BME280;11073;48.586;12.066;2023-04-08T10:08:50;96740.75;;;7.34;63.29
21821;BME280;11073;48.586;12.066;2023-04-08T10:11:39;96744.25;;;7.35;63.27
21821;BME280;11073;48.586;12.066;2023-04-08T10:14:29;96739.91;;;7.34;63.48
21821;BME280;11073;48.586;12.066;2023-04-08T10:17:26;96746.50;;;7.38;63.29
21821;BME280;11073;48.586;12.066;2023-04-08T10:20:44;96741.34;;;7.36;63.24
21821;BME280;11073;48.586;12.066;2023-04-08T10:23:52;96742.41;;;7.29;63.26
21821;BME280;11073;48.586;12.066;2023-04-08T10:26:43;96748.22;;;7.26;63.42
21821;BME280;11073;48.586;12.066;2023-04-08T10:29:34;96759.38;;;7.29;63.55
21821;BME280;11073;48.586;12.066;2023-04-08T10:32:27;96754.44;;;7.26;63.54
21821;BME280;11073;48.586;12.066;2023-04-08T10:35:16;96751.94;;;7.25;63.54
21821;BME280;11073;48.586;12.066;2023-04-08T10:38:06;96752.34;;;7.28;63.53
21821;BME280;11073;48.586;12.066;2023-04-08T10:40:55;96755.25;;;7.27;63.61
21821;BME280;11073;48.586;12.066;2023-04-08T10:43:46;96728.78;;;7.10;63.70
21821;BME280;11073;48.586;12.066;2023-04-08T10:46:37;96749.88;;;7.27;63.63
21821;BME280;11073;48.586;12.066;2023-04-08T10:49:32;96731.66;;;7.15;63.80
21821;BME280;11073;48.586;12.066;2023-04-08T10:52:22;96759.38;;;7.29;63.82
21821;BME280;11073;48.586;12.066;2023-04-08T10:55:14;96758.56;;;7.29;63.73
21821;BME280;11073;48.586;12.066;2023-04-08T10:58:05;96748.22;;;7.26;63.80
21821;BME280;11073;48.586;12.066;2023-04-08T11:01:02;96760.22;;;7.30;63.80
21821;BME280;11073;48.586;12.066;2023-04-08T11:03:52;96751.09;;;7.24;63.86
21821;BME280;11073;48.586;12.066;2023-04-08T11:06:42;96750.25;;;7.30;63.88
21821;BME280;11073;48.586;12.066;2023-04-08T11:09:33;96749.84;;;7.33;63.99
21821;BME280;11073;48.586;12.066;2023-04-08T11:12:22;96686.56;;;6.91;63.95
21821;BME280;11073;48.586;12.066;2023-04-08T11:15:12;96752.13;;;7.36;64.06
21821;BME280;11073;48.586;12.066;2023-04-08T11:18:02;96750.88;;;7.39;64.04
21821;BME280;11073;48.586;12.066;2023-04-08T11:20:54;96747.53;;;7.43;64.10
21821;BME280;11073;48.586;12.066;2023-04-08T11:23:48;96761.22;;;7.42;64.09
21821;BME280;11073;48.586;12.066;2023-04-08T11:26:38;96744.88;;;7.37;63.96
21821;BME280;11073;48.586;12.066;2023-04-08T11:29:28;96761.00;;;7.43;63.81
21821;BME280;11073;48.586;12.066;2023-04-08T11:32:17;96756.06;;;7.47;63.98
21821;BME280;11073;48.586;12.066;2023-04-08T11:35:07;96761.59;;;7.52;64.03
21821;BME280;11073;48.586;12.066;2023-04-08T11:37:58;96757.69;;;7.55;64.01
21821;BME280;11073;48.586;12.066;2023-04-08T11:40:51;96755.59;;;7.57;64.04
21821;BME280;11073;48.586;12.066;2023-04-08T11:43:50;96760.38;;;7.61;64.04
21821;BME280;11073;48.586;12.066;2023-04-08T11:46:39;96767.19;;;7.64;63.91
21821;BME280;11073;48.586;12.066;2023-04-08T11:49:42;96765.91;;;7.66;64.01
21821;BME280;11073;48.586;12.066;2023-04-08T11:52:45;96760.75;;;7.65;64.04
21821;BME280;11073;48.586;12.066;2023-04-08T11:55:35;96758.06;;;7.65;64.25
21821;BME280;11073;48.586;12.066;2023-04-08T11:58:25;96756.41;;;7.64;63.98
21821;BME280;11073;48.586;12.066;2023-04-08T12:01:13;96761.56;;;7.65;64.14
21821;BME280;11073;48.586;12.066;2023-04-08T12:04:02;96766.34;;;7.70;64.21
21821;BME280;11073;48.586;12.066;2023-04-08T12:06:53;96756.38;;;7.70;64.31
21821;BME280;11073;48.586;12.066;2023-04-08T12:09:45;96769.22;;;7.75;64.21
21821;BME280;11073;48.586;12.066;2023-04-08T12:12:36;96765.06;;;7.79;64.37
21821;BME280;11073;48.586;12.066;2023-04-08T12:15:25;96772.72;;;7.82;64.25
21821;BME280;11073;48.586;12.066;2023-04-08T12:18:14;96770.88;;;7.76;64.25
21821;BME280;11073;48.586;12.066;2023-04-08T12:21:04;96772.53;;;7.77;64.26
21821;BME280;11073;48.586;12.066;2023-04-08T12:23:53;96770.03;;;7.82;64.32
21821;BME280;11073;48.586;12.066;2023-04-08T12:26:42;96771.03;;;7.88;64.52
21821;BME280;11073;48.586;12.066;2023-04-08T12:29:33;96780.34;;;7.92;64.43
21821;BME280;11073;48.586;12.066;2023-04-08T12:32:22;96778.03;;;8.02;64.57
21821;BME280;11073;48.586;12.066;2023-04-08T12:35:12;96765.56;;;8.08;64.62
21821;BME280;11073;48.586;12.066;2023-04-08T12:38:01;96765.19;;;8.04;64.45
21821;BME280;11073;48.586;12.066;2023-04-08T12:40:50;96780.28;;;8.12;64.59
21821;BME280;11073;48.586;12.066;2023-04-08T12:43:40;96776.09;;;8.16;64.50
21821;BME280;11073;48.586;12.066;2023-04-08T12:46:30;96722.72;;;7.86;64.29
21821;BME280;11073;48.586;12.066;2023-04-08T12:49:19;96776.06;;;8.22;64.30
21821;BME280;11073;48.586;12.066;2023-04-08T12:52:10;96777.72;;;8.23;64.19
21821;BME280;11073;48.586;12.066;2023-04-08T12:54:59;96754.53;;;8.16;64.23
21821;BME280;11073;48.586;12.066;2023-04-08T12:57:48;96778.53;;;8.24;64.30
21821;BME280;11073;48.586;12.066;2023-04-08T13:00:38;96757.44;;;8.14;64.28
21821;BME280;11073;48.586;12.066;2023-04-08T13:03:34;96768.16;;;8.27;64.14
21821;BME280;11073;48.586;12.066;2023-04-08T13:06:23;96771.03;;;8.33;64.24
21821;BME280;11073;48.586;12.066;2023-04-08T13:09:13;96774.97;;;8.37;64.10
21821;BME280;11073;48.586;12.066;2023-04-08T13:12:03;96765.84;;;8.31;64.28
21821;BME280;11073;48.586;12.066;2023-04-08T13:14:51;96775.59;;;8.39;64.13
21821;BME280;11073;48.586;12.066;2023-04-08T13:17:41;96769.38;;;8.38;64.26
21821;BME280;11073;48.586;12.066;2023-04-08T13:20:32;96773.53;;;8.34;64.14
21821;BME280;11073;48.586;12.066;2023-04-08T13:23:24;96773.72;;;8.39;64.17
21821;BME280;11073;48.586;12.066;2023-04-08T13:26:13;96777.03;;;8.35;64.22
21821;BME280;11073;48.586;12.066;2023-04-08T13:29:01;96761.53;;;8.23;64.12
21821;BME280;11073;48.586;12.066;2023-04-08T13:31:51;96778.09;;;8.34;64.05
21821;BME280;11073;48.586;12.066;2023-04-08T13:34:40;96783.50;;;8.34;63.92
21821;BME280;11073;48.586;12.066;2023-04-08T13:37:31;96779.97;;;8.33;64.06
21821;BME280;11073;48.586;12.066;2023-04-08T13:40:20;96777.91;;;8.28;64.17
21821;BME280;11073;48.586;12.066;2023-04-08T13:43:09;96788.88;;;8.34;64.03
21821;BME280;11073;48.586;12.066;2023-04-08T13:45:57;96785.56;;;8.32;64.00
21821;BME280;11073;48.586;12.066;2023-04-08T13:48:46;96784.34;;;8.27;64.11
21821;BME280;11073;48.586;12.066;2023-04-08T13:51:36;96788.09;;;8.26;64.10
21821;BME280;11073;48.586;12.066;2023-04-08T13:54:26;96783.53;;;8.27;64.06
21821;BME280;11073;48.586;12.066;2023-04-08T13:57:15;96781.88;;;8.26;64.06
21821;BME280;11073;48.586;12.066;2023-04-08T14:00:05;96785.59;;;8.25;64.17
21821;BME280;11073;48.586;12.066;2023-04-08T14:02:57;96790.34;;;8.29;64.12
21821;BME280;11073;48.586;12.066;2023-04-08T14:05:46;96780.16;;;8.32;64.24
21821;BME280;11073;48.586;12.066;2023-04-08T14:08:35;96782.25;;;8.36;64.09
21821;BME280;11073;48.586;12.066;2023-04-08T14:11:25;96775.19;;;8.35;64.26
21821;BME280;11073;48.586;12.066;2023-04-08T14:14:14;96782.22;;;8.43;63.87
21821;BME280;11073;48.586;12.066;2023-04-08T14:17:03;96785.47;;;8.51;64.03
21821;BME280;11073;48.586;12.066;2023-04-08T14:19:53;96784.66;;;8.51;63.88
21821;BME280;11073;48.586;12.066;2023-04-08T14:22:42;96786.34;;;8.45;63.87
21821;BME280;11073;48.586;12.066;2023-04-08T14:25:31;96791.31;;;8.48;63.81
21821;BME280;11073;48.586;12.066;2023-04-08T14:28:22;96795.25;;;8.46;63.80
21821;BME280;11073;48.586;12.066;2023-04-08T14:31:11;96783.50;;;8.34;63.68
21821;BME280;11073;48.586;12.066;2023-04-08T14:34:01;96790.13;;;8.38;63.85
21821;BME280;11073;48.586;12.066;2023-04-08T14:36:50;96811.91;;;8.43;63.67
21821;BME280;11073;48.586;12.066;2023-04-08T14:39:38;96802.16;;;8.42;63.72
21821;BME280;11073;48.586;12.066;2023-04-08T14:42:27;96789.72;;;8.34;63.73
21821;BME280;11073;48.586;12.066;2023-04-08T14:45:18;96805.91;;;8.41;63.50
21821;BME280;11073;48.586;12.066;2023-04-08T14:48:07;96806.72;;;8.41;63.66
21821;BME280;11073;48.586;12.066;2023-04-08T14:50:56;96793.88;;;8.30;63.93
21821;BME280;11073;48.586;12.066;2023-04-08T14:53:45;96801.75;;;8.38;63.69
21821;BME280;11073;48.586;12.066;2023-04-08T14:56:34;96789.53;;;8.36;63.63
21821;BME280;11073;48.586;12.066;2023-04-08T14:59:23;96795.75;;;8.29;63.70
21821;BME280;11073;48.586;12.066;2023-04-08T15:02:14;96787.03;;;8.27;63.76